RJDT

Tsushima Airport

Airport
ICAO code
RJDT
IATA Code
TSJ
Summary
ICAO Region
APAC
ICAO Territory
Location

Tsushima, Nagasaki Prefecture

Serving
Tsushima
Elevation
207 ft
Coordinates
34° 17' 9" N , 129° 19' 34" E
KCC
Metar
Observation
RJDT 301100Z VRB02KT CAVOK 03/M08 Q1022
Station
Tsushima Airport
Date/Time
2023-01-30 12:00:00
Wind speed
02 kts
Lowest cloud amount
clouds and visibility OK
Temperature
3°C
Dew point
-8°C
Humidity
44%
QNH
1022 hPa
Weather condition
n/a

Tsushima Airport is an airport located 10 km northeast of Tsushima, a city in the Nagasaki Prefecture of Japan.

Climatology

Humid Sub-tropical climate (Köppen climate classification Cfa)

Runways

Designator Length Width Surface Rops
14/32 1900 46 ASP No/No

Airport map

Aerial View

SKYbrary Partners:

Safety knowledge contributed by: